logo
Search for airport 
image banner adimage banner adimage banner ad
image banner ad

MRTB - Ticaban

Located in Pococi, Costa Rica

ICAO - MRTB, IATA -

Data provided by Airmate  

General information

Coordinates: N10°23'46" W83°49'46"
Elevation is 246 feet MSL.
 
View others Airports in Limon

Operational data

Special qualification required
Current time UTC:
Current local time:
Weather at : MRPV - Tobias Bolanos Intl ( 59 km )
METAR: MRPV 202100Z 27010KT 9999 SHRA FEW020TCU SCT040 27/19 A3001 NOSIG
TAF: TAF COR MRPV 201725Z 2018/2118 28006KT 9999 SCT030 TX30/2019Z TN19/2111Z TEMPO 2020/2024 TSRA SCT020CB BECMG 2101/2103 11009KT
View NOTAMs / SUP AIP / TFR affecting this airport [VIEW]
Communications frequencies: [VIEW]

Runways:

RWY identifierQFULength (ft)Width (ft)SurfaceLDA (ft)
02262533UNK
20262533UNK

Airport contact information

Address: Pococi Costa Rica

Satellite view of MRTB